Aviation Digital Data Service (ADDS)

Output produced by METARs form (1555 UTC 23 January 2019)
found at http://www.aviationweather.gov/metar/data/
 
METAR text: DFFD 231500Z 02007KT 330V110 CAVOK 32/M10 Q1012 NOSIG
Conditions at: DFFD (OUAGADOUGOU (MIL, BF) observed 1500 UTC 23 January 2019
Temperature: 32.0°C (90°F)
Dewpoint: -10.0°C (14°F) [RH =  6%]
Pressure (altimeter): 29.88 inches Hg (1012.0 mb)
Winds: from the NNE (20 degrees) at 8 MPH (7 knots; 3.6 m/s)
Visibility: 6 or more miles (10+ km)
Ceiling: ceiling and visibility are OK
Clouds: unknown
Weather: no significant weather observed at this time

METAR text: DFFD 231400Z 03008KT 340V090 CAVOK 32/M10 Q1012 NOSIG
Conditions at: DFFD (OUAGADOUGOU (MIL, BF) observed 1400 UTC 23 January 2019
Temperature: 32.0°C (90°F)
Dewpoint: -10.0°C (14°F) [RH =  6%]
Pressure (altimeter): 29.88 inches Hg (1012.0 mb)
Winds: from the NNE (30 degrees) at 9 MPH (8 knots; 4.1 m/s)
Visibility: 6 or more miles (10+ km)
Ceiling: ceiling and visibility are OK
Clouds: unknown
Weather: no significant weather observed at this time

METAR text: DFFD 231300Z 04008KT 360V070 CAVOK 31/M11 Q1014 NOSIG
Conditions at: DFFD (OUAGADOUGOU (MIL, BF) observed 1300 UTC 23 January 2019
Temperature: 31.0°C (88°F)
Dewpoint: -11.0°C (12°F) [RH =  6%]
Pressure (altimeter): 29.94 inches Hg (1014.0 mb)
Winds: from the NE (40 degrees) at 9 MPH (8 knots; 4.1 m/s)
Visibility: 6 or more miles (10+ km)
Ceiling: ceiling and visibility are OK
Clouds: unknown
Weather: no significant weather observed at this time

METAR text: DFFD 231200Z 04009KT 330V090 CAVOK 30/M09 Q1014 NOSIG
Conditions at: DFFD (OUAGADOUGOU (MIL, BF) observed 1200 UTC 23 January 2019
Temperature: 30.0°C (86°F)
Dewpoint: -9.0°C (16°F) [RH =  7%]
Pressure (altimeter): 29.94 inches Hg (1014.0 mb)
Winds: from the NE (40 degrees) at 10 MPH (9 knots; 4.6 m/s)
Visibility: 6 or more miles (10+ km)
Ceiling: ceiling and visibility are OK
Clouds: unknown
Weather: no significant weather observed at this time

METAR text: DFFD 231100Z 02013KT CAVOK 28/M11 Q1015 NOSIG
Conditions at: DFFD (OUAGADOUGOU (MIL, BF) observed 1100 UTC 23 January 2019
Temperature: 28.0°C (82°F)
Dewpoint: -11.0°C (12°F) [RH =  7%]
Pressure (altimeter): 29.97 inches Hg (1015.0 mb)
Winds: from the NNE (20 degrees) at 15 MPH (13 knots; 6.7 m/s)
Visibility: 6 or more miles (10+ km)
Ceiling: ceiling and visibility are OK
Clouds: unknown
Weather: no significant weather observed at this time

METAR text: DFFD 231000Z 04013KT CAVOK 26/M10 Q1015 NOSIG
Conditions at: DFFD (OUAGADOUGOU (MIL, BF) observed 1000 UTC 23 January 2019
Temperature: 26.0°C (79°F)
Dewpoint: -10.0°C (14°F) [RH =  9%]
Pressure (altimeter): 29.97 inches Hg (1015.0 mb)
Winds: from the NE (40 degrees) at 15 MPH (13 knots; 6.7 m/s)
Visibility: 6 or more miles (10+ km)
Ceiling: ceiling and visibility are OK
Clouds: unknown
Weather: no significant weather observed at this time

METAR text: DFFD 230900Z 02011KT 8000 18/M09 Q1015 NOSIG
Conditions at: DFFD (OUAGADOUGOU (MIL, BF) observed 0900 UTC 23 January 2019
Temperature: 18.0°C (64°F)
Dewpoint: -9.0°C (16°F) [RH = 15%]
Pressure (altimeter): 29.97 inches Hg (1015.0 mb)
Winds: from the NNE (20 degrees) at 13 MPH (11 knots; 5.7 m/s)
Visibility: 5 miles ( 8 km)
Ceiling: unknown
Clouds: missing
Weather: no significant weather observed at this time

METAR text: DFFD 230800Z 02007KT 6000 NSC 20/M08 Q1015 NOSIG
Conditions at: DFFD (OUAGADOUGOU (MIL, BF) observed 0800 UTC 23 January 2019
Temperature: 20.0°C (68°F)
Dewpoint: -8.0°C (18°F) [RH = 14%]
Pressure (altimeter): 29.97 inches Hg (1015.0 mb)
Winds: from the NNE (20 degrees) at 8 MPH (7 knots; 3.6 m/s)
Visibility: 4 miles ( 6 km)
Ceiling: at least 12,000 feet AGL
Clouds: sky clear below 12,000 feet AGL
Weather: no significant weather observed at this time

METAR text: DFFD 230700Z 01006KT 6000 NSC 17/M08 Q1014 TEMPO 4000 DU
Conditions at: DFFD (OUAGADOUGOU (MIL, BF) observed 0700 UTC 23 January 2019
Temperature: 17.0°C (63°F)
Dewpoint: -8.0°C (18°F) [RH = 17%]
Pressure (altimeter): 29.94 inches Hg (1014.0 mb)
Winds: from the N (10 degrees) at 7 MPH (6 knots; 3.1 m/s)
Visibility: 4 miles ( 6 km)
Ceiling: at least 12,000 feet AGL
Clouds: sky clear below 12,000 feet AGL
Weather: no significant weather observed at this time

METAR text: DFFD 230600Z 36005KT CAVOK 18/M09 Q1014 TEMPO 4000 DU
Conditions at: DFFD (OUAGADOUGOU (MIL, BF) observed 0600 UTC 23 January 2019
Temperature: 18.0°C (64°F)
Dewpoint: -9.0°C (16°F) [RH = 15%]
Pressure (altimeter): 29.94 inches Hg (1014.0 mb)
Winds: from the N (360 degrees) at 6 MPH (5 knots; 2.6 m/s)
Visibility: 6 or more miles (10+ km)
Ceiling: ceiling and visibility are OK
Clouds: unknown
Weather: no significant weather observed at this time

METAR text: DFFD 230500Z 35005KT CAVOK 18/M10 Q1013 NOSIG
Conditions at: DFFD (OUAGADOUGOU (MIL, BF) observed 0500 UTC 23 January 2019
Temperature: 18.0°C (64°F)
Dewpoint: -10.0°C (14°F) [RH = 14%]
Pressure (altimeter): 29.91 inches Hg (1013.0 mb)
Winds: from the N (350 degrees) at 6 MPH (5 knots; 2.6 m/s)
Visibility: 6 or more miles (10+ km)
Ceiling: ceiling and visibility are OK
Clouds: unknown
Weather: no significant weather observed at this time

METAR text: DFFD 230400Z 01005KT CAVOK 18/M10 Q1013 NOSIG
Conditions at: DFFD (OUAGADOUGOU (MIL, BF) observed 0400 UTC 23 January 2019
Temperature: 18.0°C (64°F)
Dewpoint: -10.0°C (14°F) [RH = 14%]
Pressure (altimeter): 29.91 inches Hg (1013.0 mb)
Winds: from the N (10 degrees) at 6 MPH (5 knots; 2.6 m/s)
Visibility: 6 or more miles (10+ km)
Ceiling: ceiling and visibility are OK
Clouds: unknown
Weather: no significant weather observed at this time

METAR text: DFFD 230200Z 36006KT CAVOK 21/M10 Q1014 NOSIG
Conditions at: DFFD (OUAGADOUGOU (MIL, BF) observed 0200 UTC 23 January 2019
Temperature: 21.0°C (70°F)
Dewpoint: -10.0°C (14°F) [RH = 12%]
Pressure (altimeter): 29.94 inches Hg (1014.0 mb)
Winds: from the N (360 degrees) at 7 MPH (6 knots; 3.1 m/s)
Visibility: 6 or more miles (10+ km)
Ceiling: ceiling and visibility are OK
Clouds: unknown
Weather: no significant weather observed at this time

METAR text: DFFD 230100Z 01007KT CAVOK 21/M09 Q1014 NOSIG
Conditions at: DFFD (OUAGADOUGOU (MIL, BF) observed 0100 UTC 23 January 2019
Temperature: 21.0°C (70°F)
Dewpoint: -9.0°C (16°F) [RH = 12%]
Pressure (altimeter): 29.94 inches Hg (1014.0 mb)
Winds: from the N (10 degrees) at 8 MPH (7 knots; 3.6 m/s)
Visibility: 6 or more miles (10+ km)
Ceiling: ceiling and visibility are OK
Clouds: unknown
Weather: no significant weather observed at this time

METAR text: DFFD 230000Z 01007KT CAVOK 23/M09 Q1015 NOSIG
Conditions at: DFFD (OUAGADOUGOU (MIL, BF) observed 0000 UTC 23 January 2019
Temperature: 23.0°C (73°F)
Dewpoint: -9.0°C (16°F) [RH = 11%]
Pressure (altimeter): 29.97 inches Hg (1015.0 mb)
Winds: from the N (10 degrees) at 8 MPH (7 knots; 3.6 m/s)
Visibility: 6 or more miles (10+ km)
Ceiling: ceiling and visibility are OK
Clouds: unknown
Weather: no significant weather observed at this time

METAR text: DFFD 222300Z 01006KT CAVOK 23/M09 Q1015 NOSIG
Conditions at: DFFD (OUAGADOUGOU (MIL, BF) observed 2300 UTC 22 January 2019
Temperature: 23.0°C (73°F)
Dewpoint: -9.0°C (16°F) [RH = 11%]
Pressure (altimeter): 29.97 inches Hg (1015.0 mb)
Winds: from the N (10 degrees) at 7 MPH (6 knots; 3.1 m/s)
Visibility: 6 or more miles (10+ km)
Ceiling: ceiling and visibility are OK
Clouds: unknown
Weather: no significant weather observed at this time

METAR text: DFFD 222200Z 36006KT CAVOK 25/M09 Q1015 NOSIG
Conditions at: DFFD (OUAGADOUGOU (MIL, BF) observed 2200 UTC 22 January 2019
Temperature: 25.0°C (77°F)
Dewpoint: -9.0°C (16°F) [RH = 10%]
Pressure (altimeter): 29.97 inches Hg (1015.0 mb)
Winds: from the N (360 degrees) at 7 MPH (6 knots; 3.1 m/s)
Visibility: 6 or more miles (10+ km)
Ceiling: ceiling and visibility are OK
Clouds: unknown
Weather: no significant weather observed at this time

METAR text: DFFD 222100Z 01007KT CAVOK 26/M10 Q1014 NOSIG
Conditions at: DFFD (OUAGADOUGOU (MIL, BF) observed 2100 UTC 22 January 2019
Temperature: 26.0°C (79°F)
Dewpoint: -10.0°C (14°F) [RH =  9%]
Pressure (altimeter): 29.94 inches Hg (1014.0 mb)
Winds: from the N (10 degrees) at 8 MPH (7 knots; 3.6 m/s)
Visibility: 6 or more miles (10+ km)
Ceiling: ceiling and visibility are OK
Clouds: unknown
Weather: no significant weather observed at this time

METAR text: DFFD 222000Z 36006KT CAVOK 27/M09 Q1013 NOSIG
Conditions at: DFFD (OUAGADOUGOU (MIL, BF) observed 2000 UTC 22 January 2019
Temperature: 27.0°C (81°F)
Dewpoint: -9.0°C (16°F) [RH =  9%]
Pressure (altimeter): 29.91 inches Hg (1013.0 mb)
Winds: from the N (360 degrees) at 7 MPH (6 knots; 3.1 m/s)
Visibility: 6 or more miles (10+ km)
Ceiling: ceiling and visibility are OK
Clouds: unknown
Weather: no significant weather observed at this time

METAR text: DFFD 221900Z 35005KT CAVOK 28/M08 Q1012 NOSIG
Conditions at: DFFD (OUAGADOUGOU (MIL, BF) observed 1900 UTC 22 January 2019
Temperature: 28.0°C (82°F)
Dewpoint: -8.0°C (18°F) [RH =  9%]
Pressure (altimeter): 29.88 inches Hg (1012.0 mb)
Winds: from the N (350 degrees) at 6 MPH (5 knots; 2.6 m/s)
Visibility: 6 or more miles (10+ km)
Ceiling: ceiling and visibility are OK
Clouds: unknown
Weather: no significant weather observed at this time

METAR text: DFFD 221800Z 35005KT CAVOK 30/M09 Q1012 NOSIG
Conditions at: DFFD (OUAGADOUGOU (MIL, BF) observed 1800 UTC 22 January 2019
Temperature: 30.0°C (86°F)
Dewpoint: -9.0°C (16°F) [RH =  7%]
Pressure (altimeter): 29.88 inches Hg (1012.0 mb)
Winds: from the N (350 degrees) at 6 MPH (5 knots; 2.6 m/s)
Visibility: 6 or more miles (10+ km)
Ceiling: ceiling and visibility are OK
Clouds: unknown
Weather: no significant weather observed at this time

METAR text: DFFD 221700Z 34005KT 300V010 CAVOK 32/M08 Q1012 NOSIG
Conditions at: DFFD (OUAGADOUGOU (MIL, BF) observed 1700 UTC 22 January 2019
Temperature: 32.0°C (90°F)
Dewpoint: -8.0°C (18°F) [RH =  7%]
Pressure (altimeter): 29.88 inches Hg (1012.0 mb)
Winds: from the NNW (340 degrees) at 6 MPH (5 knots; 2.6 m/s)
Visibility: 6 or more miles (10+ km)
Ceiling: ceiling and visibility are OK
Clouds: unknown
Weather: no significant weather observed at this time

METAR text: DFFD 221600Z 34007KT 300V040 CAVOK 33/M10 Q1011 NOSIG
Conditions at: DFFD (OUAGADOUGOU (MIL, BF) observed 1600 UTC 22 January 2019
Temperature: 33.0°C (91°F)
Dewpoint: -10.0°C (14°F) [RH =  6%]
Pressure (altimeter): 29.85 inches Hg (1011.0 mb)
Winds: from the NNW (340 degrees) at 8 MPH (7 knots; 3.6 m/s)
Visibility: 6 or more miles (10+ km)
Ceiling: ceiling and visibility are OK
Clouds: unknown
Weather: no significant weather observed at this time

METAR text: DFFD 221500Z 34005KT 260V040 CAVOK 34/M09 Q1012 NOSIG
Conditions at: DFFD (OUAGADOUGOU (MIL, BF) observed 1500 UTC 22 January 2019
Temperature: 34.0°C (93°F)
Dewpoint: -9.0°C (16°F) [RH =  6%]
Pressure (altimeter): 29.88 inches Hg (1012.0 mb)
Winds: from the NNW (340 degrees) at 6 MPH (5 knots; 2.6 m/s)
Visibility: 6 or more miles (10+ km)
Ceiling: ceiling and visibility are OK
Clouds: unknown
Weather: no significant weather observed at this time

METAR text: DFFD 221400Z 01007KT 320V070 CAVOK 33/M10 Q1013 NOSIG
Conditions at: DFFD (OUAGADOUGOU (MIL, BF) observed 1400 UTC 22 January 2019
Temperature: 33.0°C (91°F)
Dewpoint: -10.0°C (14°F) [RH =  6%]
Pressure (altimeter): 29.91 inches Hg (1013.0 mb)
Winds: from the N (10 degrees) at 8 MPH (7 knots; 3.6 m/s)
Visibility: 6 or more miles (10+ km)
Ceiling: ceiling and visibility are OK
Clouds: unknown
Weather: no significant weather observed at this time

METAR text: DFFD 221300Z 04006KT 010V090 CAVOK 32/M13 Q1013 NOSIG
Conditions at: DFFD (OUAGADOUGOU (MIL, BF) observed 1300 UTC 22 January 2019
Temperature: 32.0°C (90°F)
Dewpoint: -13.0°C ( 9°F) [RH =  5%]
Pressure (altimeter): 29.91 inches Hg (1013.0 mb)
Winds: from the NE (40 degrees) at 7 MPH (6 knots; 3.1 m/s)
Visibility: 6 or more miles (10+ km)
Ceiling: ceiling and visibility are OK
Clouds: unknown
Weather: no significant weather observed at this time

METAR text: DFFD 221200Z 01006KT 330V060 CAVOK 31/M13 Q1015 NOSIG
Conditions at: DFFD (OUAGADOUGOU (MIL, BF) observed 1200 UTC 22 January 2019
Temperature: 31.0°C (88°F)
Dewpoint: -13.0°C ( 9°F) [RH =  5%]
Pressure (altimeter): 29.97 inches Hg (1015.0 mb)
Winds: from the N (10 degrees) at 7 MPH (6 knots; 3.1 m/s)
Visibility: 6 or more miles (10+ km)
Ceiling: ceiling and visibility are OK
Clouds: unknown
Weather: no significant weather observed at this time

METAR text: DFFD 221100Z 02007KT 340V080 9999 FEW026 30/M10 Q1015 NOSIG
Conditions at: DFFD (OUAGADOUGOU (MIL, BF) observed 1100 UTC 22 January 2019
Temperature: 30.0°C (86°F)
Dewpoint: -10.0°C (14°F) [RH =  7%]
Pressure (altimeter): 29.97 inches Hg (1015.0 mb)
Winds: from the NNE (20 degrees) at 8 MPH (7 knots; 3.6 m/s)
Visibility: 6 or more miles (10+ km)
Ceiling: at least 12,000 feet AGL
Clouds: few clouds at 2600 feet AGL
Weather: no significant weather observed at this time

METAR text: DFFD 221000Z 02007KT 350V050 CAVOK 27/M10 Q1016 NOSIG
Conditions at: DFFD (OUAGADOUGOU (MIL, BF) observed 1000 UTC 22 January 2019
Temperature: 27.0°C (81°F)
Dewpoint: -10.0°C (14°F) [RH =  8%]
Pressure (altimeter): 30.00 inches Hg (1016.0 mb)
Winds: from the NNE (20 degrees) at 8 MPH (7 knots; 3.6 m/s)
Visibility: 6 or more miles (10+ km)
Ceiling: ceiling and visibility are OK
Clouds: unknown
Weather: no significant weather observed at this time

METAR text: DFFD 220900Z 36007KT 8000 NSC 24/M09 Q1016 NOSIG
Conditions at: DFFD (OUAGADOUGOU (MIL, BF) observed 0900 UTC 22 January 2019
Temperature: 24.0°C (75°F)
Dewpoint: -9.0°C (16°F) [RH = 10%]
Pressure (altimeter): 30.00 inches Hg (1016.0 mb)
Winds: from the N (360 degrees) at 8 MPH (7 knots; 3.6 m/s)
Visibility: 5 miles ( 8 km)
Ceiling: at least 12,000 feet AGL
Clouds: sky clear below 12,000 feet AGL
Weather: no significant weather observed at this time

METAR text: DFFD 220800Z 35005KT 310V010 6000 NSC 21/M08 Q1015 NOSIG
Conditions at: DFFD (OUAGADOUGOU (MIL, BF) observed 0800 UTC 22 January 2019
Temperature: 21.0°C (70°F)
Dewpoint: -8.0°C (18°F) [RH = 13%]
Pressure (altimeter): 29.97 inches Hg (1015.0 mb)
Winds: from the N (350 degrees) at 6 MPH (5 knots; 2.6 m/s)
Visibility: 4 miles ( 6 km)
Ceiling: at least 12,000 feet AGL
Clouds: sky clear below 12,000 feet AGL
Weather: no significant weather observed at this time

METAR text: DFFD 220700Z 33003KT 6000 NSC 16/M04 Q1014 NOSIG
Conditions at: DFFD (OUAGADOUGOU (MIL, BF) observed 0700 UTC 22 January 2019
Temperature: 16.0°C (61°F)
Dewpoint: -4.0°C (25°F) [RH = 25%]
Pressure (altimeter): 29.94 inches Hg (1014.0 mb)
Winds: from the NNW (330 degrees) at 3 MPH (3 knots; 1.5 m/s)
Visibility: 4 miles ( 6 km)
Ceiling: at least 12,000 feet AGL
Clouds: sky clear below 12,000 feet AGL
Weather: no significant weather observed at this time

METAR text: DFFD 220600Z 33002KT CAVOK 16/M04 Q1013 NOSIG
Conditions at: DFFD (OUAGADOUGOU (MIL, BF) observed 0600 UTC 22 January 2019
Temperature: 16.0°C (61°F)
Dewpoint: -4.0°C (25°F) [RH = 25%]
Pressure (altimeter): 29.91 inches Hg (1013.0 mb)
Winds: from the NNW (330 degrees) at 2 MPH (2 knots; 1.0 m/s)
Visibility: 6 or more miles (10+ km)
Ceiling: ceiling and visibility are OK
Clouds: unknown
Weather: no significant weather observed at this time

METAR text: DFFD 220500Z 33003KT CAVOK 16/M06 Q1013 NOSIG
Conditions at: DFFD (OUAGADOUGOU (MIL, BF) observed 0500 UTC 22 January 2019
Temperature: 16.0°C (61°F)
Dewpoint: -6.0°C (21°F) [RH = 21%]
Pressure (altimeter): 29.91 inches Hg (1013.0 mb)
Winds: from the NNW (330 degrees) at 3 MPH (3 knots; 1.5 m/s)
Visibility: 6 or more miles (10+ km)
Ceiling: ceiling and visibility are OK
Clouds: unknown
Weather: no significant weather observed at this time

METAR text: DFFD 220400Z 32002KT CAVOK 17/M04 Q1013 NOSIG
Conditions at: DFFD (OUAGADOUGOU (MIL, BF) observed 0400 UTC 22 January 2019
Temperature: 17.0°C (63°F)
Dewpoint: -4.0°C (25°F) [RH = 23%]
Pressure (altimeter): 29.91 inches Hg (1013.0 mb)
Winds: from the NW (320 degrees) at 2 MPH (2 knots; 1.0 m/s)
Visibility: 6 or more miles (10+ km)
Ceiling: ceiling and visibility are OK
Clouds: unknown
Weather: no significant weather observed at this time

Forecast for: DFFD (OUAGADOUGOU (MIL, BF)
Text: TAF DFFD 231100Z 2312/2418 03008KT 8000 NSC
Forecast period: 1200 UTC 23 January 2019 to 1800 UTC 24 January 2019
Forecast type: FROM: standard forecast or significant change
Winds: from the NNE (30 degrees) at 9 MPH (8 knots; 4.1 m/s)
Visibility: 5 miles (8 km)
Ceiling: unknown
Clouds: missing
Weather: no significant weather forecast for this period
Text: TEMPO 2406/2410 4000 HZ
Forecast period: 0600 to 1000 UTC 24 January 2019
Forecast type: TEMPORARY: The following changes expected for less than half the time period
Visibility: 2.49 miles (4.01 km)
Ceiling: unknown
Clouds: missing
Weather: HZ  (haze)